首页
METAR-TAF:

METAR-TAF

机场 :

Revelstoke, 不列颠哥伦比亚, 加拿大

纬度: 50-58N, 经度: 118-11W, 海拔: 443米

当前天气观测

该预报发布于35分钟前的05:00 UTC
风速2节,风向多变
温度 11°C
湿度 94%
气压 1005 hPa
能見度: 14.5公里
少量云层高于6000英尺
阴天层高于8900英尺

METAR: CYRV 250500Z AUTO VRB02KT 9SM FEW060 OVC089 11/10 A2967 RMK SLP052 DENSITY ALT 1700FT

时间: 22:35 (05:35 UTC)


TAF: 丢失

超过4000个机场的气象观测和天气预报(METAR&TAF报告)。

可查询的气象台以黄色和红色小点在地图上表示。

将鼠标移到小点上方,可查看气象台名称。

然后点击查看天气观测和预报。

如需切换地图:点击带黑十字的绿色按钮放大地图;点击带横线的绿色按钮缩小地图;或者点击绿色箭头查看邻近地区的地图。


METAR-TAF: